Meteo Giornale » Osservazioni meteo Italia » Cervia

ore: 20:55 - Osservazioni Meteo Cervia
Lat. 44° 13' N Lon. 12° 18' E Alt. 6 metri s.l.m.

sereno Europe/Rome

20 °C

Sereno

Temp. 24 Ore

13 °C

23 °C

Nord

3.7 Km/h

Dew point 15 °C

Umidità 72 %

Visibilità  10 Km

Il sole sorge alle ore 05:32

Il sole tramonta alle ore 20:42

Data e Ora Cielo e Fenomeni T °C DP °C Um. % Pres. hPa Vis. km Vento km/h
Oggi h: 20:55 sereno Sereno 20 15 72 1013 10 N 3.7
Oggi h: 19:55 sereno Sereno 21 15 68 1013 10 N 5.5
Oggi h: 18:55 sereno Sereno 22 15 64 1013 10 SE 9.3
Oggi h: 17:55 sereno Sereno 21 18 82 1012 10 E 9.3
Oggi h: 16:55 sereno Sereno 21 17 77 1013 10 E/SE 14.8
Oggi h: 15:55 sereno Sereno 21 18 82 1013 10 E/SE 13
Oggi h: 14:55 sereno Sereno 21 18 82 1013 10 E/NE 14.8
Oggi h: 13:55 sereno Sereno 22 15 64 1014 10 E/NE 16.7
Oggi h: 12:55 sereno Sereno 22 15 64 1014 10 E/NE 13
Oggi h: 11:55 sereno Sereno 23 16 64 1014 10 E/NE 11.1
Oggi h: 10:55 sereno Sereno 22 15 64 1014 10 N 3.7
Oggi h: 09:55 sereno Sereno 21 14 64 1014 10 NO 7.4
Oggi h: 08:55 sereno Sereno 19 14 72 1014 10 O 9.3
Oggi h: 07:55 sereno Sereno 17 14 82 1013 10 N 5.5
Oggi h: 06:55 sereno Sereno 14 12 87 1013 10 O/SO 9.3
Oggi h: 05:55 sereno Sereno 13 12 93 1013 10 N 5.5
Oggi h: 04:55 sereno Sereno 13 12 93 1013 10 N 3.7
Oggi h: 03:55 sereno Sereno 14 13 93 1013 10 S/SO 7.4
Oggi h: 02:55 sereno Sereno 14 13 93 1013 10 N 5.5
Oggi h: 00:55 sereno Sereno 15 14 93 1013 10 N 5.5
Ieri h: 23:55 sereno Sereno 16 15 93 1013 10 SO 7.4
Ieri h: 21:55 sereno Sereno 17 15 88 1012 10 N 3.7